createdAt,value
2024-03-03T00:01:09.339Z,99.90
2024-03-03T00:03:36.985Z,99.90
2024-03-03T00:06:08.725Z,99.90
2024-03-03T00:08:36.406Z,99.90
2024-03-03T00:11:04.683Z,99.90
2024-03-03T00:13:33.308Z,99.90
2024-03-03T00:16:00.423Z,99.90
2024-03-03T00:18:27.335Z,99.90
2024-03-03T00:20:54.186Z,99.90
2024-03-03T00:23:21.158Z,99.90
2024-03-03T00:25:48.477Z,99.90
2024-03-03T00:28:15.344Z,99.90
2024-03-03T00:30:42.710Z,99.90
2024-03-03T00:33:09.585Z,99.90
2024-03-03T00:35:36.459Z,99.90
2024-03-03T00:38:03.694Z,99.90
2024-03-03T00:40:33.974Z,99.90
2024-03-03T00:43:01.087Z,99.90
2024-03-03T00:45:27.940Z,99.90
2024-03-03T00:47:54.808Z,99.90
2024-03-03T00:50:21.626Z,99.90
2024-03-03T00:52:50.509Z,99.90
2024-03-03T00:55:17.417Z,99.90
2024-03-03T00:57:44.348Z,99.90
2024-03-03T01:00:11.740Z,99.90
2024-03-03T01:02:38.661Z,99.90
2024-03-03T01:05:06.485Z,99.90
2024-03-03T01:07:33.326Z,99.90
2024-03-03T01:10:00.475Z,99.90
2024-03-03T01:12:27.955Z,99.90
2024-03-03T01:14:54.820Z,99.90
2024-03-03T01:17:21.732Z,99.90
2024-03-03T01:19:51.675Z,99.90
2024-03-03T01:22:18.597Z,99.90
2024-03-03T01:24:45.532Z,99.90
2024-03-03T01:27:12.449Z,99.90
2024-03-03T01:29:39.270Z,99.90
2024-03-03T01:32:08.365Z,99.90
2024-03-03T01:34:36.129Z,99.90
2024-03-03T01:37:02.999Z,99.90
2024-03-03T01:39:29.954Z,99.90
2024-03-03T01:41:56.804Z,99.90
2024-03-03T01:44:23.712Z,99.90
2024-03-03T01:46:50.664Z,99.90
2024-03-03T01:49:18.651Z,99.90
2024-03-03T01:51:46.877Z,99.90
2024-03-03T01:54:13.980Z,99.90
2024-03-03T01:56:44.931Z,99.90
2024-03-03T01:59:12.498Z,99.90
2024-03-03T02:01:41.762Z,99.90
2024-03-03T02:04:10.504Z,99.90
2024-03-03T02:06:41.677Z,99.90
2024-03-03T02:09:11.577Z,99.90
2024-03-03T02:11:39.530Z,99.90
2024-03-03T02:14:06.631Z,99.90
2024-03-03T02:16:33.695Z,99.90
2024-03-03T02:19:00.586Z,99.90
2024-03-03T02:21:27.590Z,99.90
2024-03-03T02:23:54.507Z,99.90
2024-03-03T02:26:27.010Z,99.90
2024-03-03T02:28:55.508Z,99.90
2024-03-03T02:31:23.073Z,99.90
2024-03-03T02:33:50.099Z,99.90
2024-03-03T02:36:17.203Z,99.90
2024-03-03T02:38:51.707Z,99.90
2024-03-03T02:41:18.662Z,99.90
2024-03-03T02:43:45.542Z,99.90
2024-03-03T02:46:12.885Z,99.90
2024-03-03T02:48:39.773Z,99.90
2024-03-03T02:51:06.681Z,99.90
2024-03-03T02:53:33.533Z,99.90
2024-03-03T02:56:00.386Z,99.90
2024-03-03T02:58:29.546Z,99.90
2024-03-03T03:00:56.961Z,99.90
2024-03-03T03:03:23.882Z,99.90
2024-03-03T03:05:50.719Z,99.90
2024-03-03T03:08:17.563Z,99.90
2024-03-03T03:10:44.481Z,99.90
2024-03-03T03:13:11.469Z,99.90
2024-03-03T03:15:38.516Z,99.90
2024-03-03T03:18:06.459Z,99.90
2024-03-03T03:20:33.574Z,99.90
2024-03-03T03:23:00.515Z,99.90
2024-03-03T03:25:27.514Z,99.90
2024-03-03T03:27:54.496Z,99.90
2024-03-03T03:30:21.345Z,99.90
2024-03-03T03:32:48.280Z,99.90
2024-03-03T03:35:15.258Z,99.90
2024-03-03T03:37:42.157Z,99.90
2024-03-03T03:40:11.513Z,99.90
2024-03-03T03:42:38.991Z,99.90
2024-03-03T03:45:06.996Z,99.90
2024-03-03T03:47:34.422Z,99.90
2024-03-03T03:50:01.522Z,99.90
2024-03-03T03:52:29.547Z,99.90
2024-03-03T03:54:56.602Z,99.90
2024-03-03T03:57:23.572Z,99.90
2024-03-03T03:59:50.674Z,99.90
2024-03-03T04:02:17.840Z,99.90
2024-03-03T04:04:44.776Z,99.90
2024-03-03T04:07:11.749Z,99.90
2024-03-03T04:09:38.823Z,99.90
2024-03-03T04:12:06.666Z,99.90
2024-03-03T04:14:33.714Z,99.90
2024-03-03T04:17:00.653Z,99.90
2024-03-03T04:19:27.686Z,99.90
2024-03-03T04:21:54.661Z,99.90
2024-03-03T04:24:22.236Z,99.90
2024-03-03T04:26:49.154Z,99.90
2024-03-03T04:29:16.223Z,99.90
2024-03-03T04:31:46.243Z,99.90
2024-03-03T04:34:13.379Z,99.90
2024-03-03T04:36:47.061Z,99.90
2024-03-03T04:39:14.371Z,99.90
2024-03-03T04:41:41.246Z,99.90
2024-03-03T04:44:08.168Z,99.90
2024-03-03T04:46:35.308Z,99.90
2024-03-03T04:49:02.234Z,99.90
2024-03-03T04:51:29.139Z,99.90
2024-03-03T04:53:56.475Z,99.90
2024-03-03T04:56:28.699Z,99.90
2024-03-03T04:58:55.726Z,99.90
2024-03-03T05:01:23.531Z,99.90
2024-03-03T05:03:50.597Z,99.90
2024-03-03T05:06:17.527Z,99.90
2024-03-03T05:08:44.435Z,99.90
2024-03-03T05:11:11.638Z,99.90
2024-03-03T05:13:39.362Z,99.90
2024-03-03T05:16:08.108Z,99.90
2024-03-03T05:18:35.407Z,99.90
2024-03-03T05:21:02.387Z,99.90
2024-03-03T05:23:29.387Z,99.90
2024-03-03T05:25:56.204Z,99.90
2024-03-03T05:28:25.088Z,99.90
2024-03-03T05:30:53.312Z,99.90
2024-03-03T05:33:20.341Z,99.90
2024-03-03T05:35:47.300Z,99.90
2024-03-03T05:38:16.218Z,99.90
2024-03-03T05:40:43.155Z,99.90
2024-03-03T05:43:10.454Z,99.90
2024-03-03T05:45:38.078Z,99.90
2024-03-03T05:48:05.643Z,99.90
2024-03-03T05:50:33.023Z,99.90
2024-03-03T05:52:59.932Z,99.90
2024-03-03T05:55:26.810Z,99.90
2024-03-03T05:57:53.744Z,99.90
2024-03-03T06:00:20.696Z,99.90
2024-03-03T06:02:47.568Z,99.90
2024-03-03T06:05:14.550Z,99.90
2024-03-03T06:07:41.359Z,99.90
2024-03-03T06:10:08.857Z,99.90
2024-03-03T06:12:35.827Z,99.90
2024-03-03T06:15:02.706Z,99.90
2024-03-03T06:17:29.597Z,99.90
2024-03-03T06:19:56.852Z,99.90
2024-03-03T06:22:23.863Z,99.90
2024-03-03T06:24:50.806Z,99.90
2024-03-03T06:27:20.712Z,99.90
2024-03-03T06:29:47.541Z,99.90
2024-03-03T06:32:14.669Z,99.90
2024-03-03T06:34:42.626Z,99.90
2024-03-03T06:37:12.018Z,99.90
2024-03-03T06:39:38.956Z,99.90
2024-03-03T06:42:06.848Z,99.90
2024-03-03T06:44:35.234Z,99.90
2024-03-03T06:47:03.633Z,99.90
2024-03-03T06:49:30.550Z,99.90
2024-03-03T06:51:57.496Z,99.90
2024-03-03T06:54:24.362Z,99.90
2024-03-03T06:56:54.223Z,99.90
2024-03-03T06:59:21.059Z,99.90
2024-03-03T07:01:47.993Z,99.90
2024-03-03T07:04:21.942Z,99.90
2024-03-03T07:06:48.983Z,99.90
2024-03-03T07:09:16.143Z,99.90
2024-03-03T07:11:43.134Z,99.90
2024-03-03T07:14:10.096Z,99.90
2024-03-03T07:16:37.092Z,99.90
2024-03-03T07:19:04.610Z,99.90
2024-03-03T07:21:31.581Z,99.90
2024-03-03T07:23:58.539Z,99.90
2024-03-03T07:26:25.961Z,99.90
2024-03-03T07:28:53.453Z,99.90
2024-03-03T07:31:20.930Z,99.90
2024-03-03T07:33:48.316Z,99.90
2024-03-03T07:36:15.518Z,99.90
2024-03-03T07:38:42.547Z,99.90
2024-03-03T07:41:09.714Z,99.90
2024-03-03T07:43:36.856Z,99.90
2024-03-03T07:46:04.338Z,99.90
2024-03-03T07:48:31.703Z,99.90
2024-03-03T07:50:59.373Z,99.90
2024-03-03T07:53:26.528Z,99.90
2024-03-03T07:55:53.411Z,99.90
2024-03-03T07:58:20.500Z,99.90
2024-03-03T08:00:47.526Z,99.90
2024-03-03T08:03:17.444Z,99.90
2024-03-03T08:05:44.376Z,99.90
2024-03-03T08:08:12.232Z,99.90
2024-03-03T08:10:41.497Z,99.90
2024-03-03T08:13:09.661Z,99.90
2024-03-03T08:15:36.653Z,99.90
2024-03-03T08:18:03.983Z,99.90
2024-03-03T08:20:30.933Z,99.90
2024-03-03T08:22:57.781Z,99.90
2024-03-03T08:25:25.884Z,99.90
2024-03-03T08:27:53.815Z,99.90
2024-03-03T08:30:21.315Z,99.90
2024-03-03T08:32:48.256Z,99.90
2024-03-03T08:35:15.795Z,99.90
2024-03-03T08:37:45.732Z,99.90
2024-03-03T08:40:13.191Z,99.90
2024-03-03T08:42:40.194Z,99.90
2024-03-03T08:45:08.465Z,99.90
2024-03-03T08:47:35.432Z,99.90
2024-03-03T08:50:05.383Z,99.90
2024-03-03T08:52:32.331Z,99.90
2024-03-03T08:54:59.273Z,99.90
2024-03-03T08:57:26.194Z,99.90
2024-03-03T08:59:53.133Z,99.90
2024-03-03T09:02:20.107Z,99.90
2024-03-03T09:04:47.296Z,99.90
2024-03-03T09:07:14.553Z,99.90
2024-03-03T09:09:43.598Z,99.90
2024-03-03T09:12:12.102Z,99.90
2024-03-03T09:14:39.219Z,99.90
2024-03-03T09:17:06.350Z,99.90
2024-03-03T09:19:33.379Z,99.90
2024-03-03T09:22:00.619Z,99.90
2024-03-03T09:24:27.671Z,99.90
2024-03-03T09:26:54.626Z,99.90
2024-03-03T09:29:24.951Z,99.90
2024-03-03T09:31:55.649Z,99.90
2024-03-03T09:34:23.722Z,99.90
2024-03-03T09:36:51.182Z,99.90
2024-03-03T09:39:18.441Z,99.90
2024-03-03T09:41:45.477Z,99.90
2024-03-03T09:44:19.136Z,99.90
2024-03-03T09:46:49.437Z,99.90
2024-03-03T09:49:19.594Z,99.90
2024-03-03T09:51:48.554Z,99.90
2024-03-03T09:54:19.907Z,99.90
2024-03-03T09:56:49.656Z,99.90
2024-03-03T09:59:18.396Z,99.90
2024-03-03T10:01:53.702Z,99.90
2024-03-03T10:04:23.378Z,99.90
2024-03-03T10:06:57.339Z,99.90
2024-03-03T10:09:26.385Z,99.90
2024-03-03T10:11:57.037Z,99.90
2024-03-03T10:14:27.510Z,99.90
2024-03-03T10:16:54.448Z,99.90
2024-03-03T10:19:21.922Z,99.90
2024-03-03T10:21:55.606Z,99.90
2024-03-03T10:24:25.027Z,99.90
2024-03-03T10:26:57.046Z,99.90
2024-03-03T10:29:28.702Z,99.90
2024-03-03T10:32:00.078Z,99.90
2024-03-03T10:34:27.404Z,99.90
2024-03-03T10:37:05.364Z,99.90
2024-03-03T10:39:42.189Z,99.90
2024-03-03T10:42:11.501Z,99.90
2024-03-03T10:44:39.317Z,99.90
2024-03-03T10:47:10.008Z,99.90
2024-03-03T10:49:39.405Z,99.90
2024-03-03T10:52:10.984Z,99.90
2024-03-03T10:54:39.687Z,99.90
2024-03-03T10:57:09.239Z,99.90
2024-03-03T10:59:40.468Z,99.90
2024-03-03T11:02:12.390Z,99.90
2024-03-03T11:04:42.191Z,99.90
2024-03-03T11:07:12.533Z,99.90
2024-03-03T11:09:40.216Z,99.90
2024-03-03T11:12:16.623Z,99.90
2024-03-03T11:14:48.557Z,99.90
2024-03-03T11:17:31.602Z,99.90
2024-03-03T11:20:01.866Z,99.90
2024-03-03T11:22:37.057Z,99.90
2024-03-03T11:25:07.528Z,99.90
2024-03-03T11:27:44.212Z,99.90
2024-03-03T11:30:12.236Z,99.90
2024-03-03T11:32:40.987Z,99.90
2024-03-03T11:35:10.220Z,99.90
2024-03-03T11:37:37.704Z,99.90
2024-03-03T11:40:05.695Z,99.90
2024-03-03T11:42:32.576Z,99.90
2024-03-03T11:45:04.466Z,99.90
2024-03-03T11:47:34.643Z,99.90
2024-03-03T11:50:02.395Z,99.90
2024-03-03T11:52:45.629Z,99.90
2024-03-03T11:55:17.614Z,99.90
2024-03-03T11:57:45.860Z,99.90
2024-03-03T12:00:18.876Z,99.90
2024-03-03T12:02:47.509Z,99.90
2024-03-03T12:05:16.268Z,99.90
2024-03-03T12:08:06.774Z,99.90
2024-03-03T12:10:34.382Z,99.90
2024-03-03T12:13:02.969Z,99.90
2024-03-03T12:15:33.340Z,99.90
2024-03-03T12:18:02.442Z,99.90
2024-03-03T12:20:30.744Z,99.90
2024-03-03T12:22:58.393Z,99.90
2024-03-03T12:25:26.968Z,99.90
2024-03-03T12:28:00.803Z,99.90
2024-03-03T12:30:34.789Z,99.90
2024-03-03T12:33:05.772Z,99.90
2024-03-03T12:35:37.121Z,99.90
2024-03-03T12:38:04.892Z,99.90
2024-03-03T12:40:32.340Z,99.90
2024-03-03T12:43:00.075Z,99.90
2024-03-03T12:45:29.219Z,98.70
2024-03-03T12:47:56.327Z,98.90
2024-03-03T12:50:23.528Z,99.50
2024-03-03T12:52:52.446Z,99.90
2024-03-03T12:55:29.366Z,99.90
2024-03-03T12:57:56.882Z,99.90
2024-03-03T13:00:24.842Z,96.80
2024-03-03T13:02:52.905Z,97.10
2024-03-03T13:05:20.571Z,97.10
2024-03-03T13:07:49.490Z,98.90
2024-03-03T13:10:19.926Z,96.60
2024-03-03T13:12:54.231Z,98.40
2024-03-03T13:15:29.021Z,96.30
2024-03-03T13:18:14.438Z,94.80
2024-03-03T13:20:42.129Z,97.80
2024-03-03T13:23:13.857Z,96.50
2024-03-03T13:25:45.371Z,95.80
2024-03-03T13:28:17.669Z,95.40
2024-03-03T13:31:01.763Z,96.80
2024-03-03T13:33:33.537Z,95.80
2024-03-03T13:36:05.887Z,95.80
2024-03-03T13:38:34.223Z,93.90
2024-03-03T13:41:02.105Z,96.40
2024-03-03T13:43:29.954Z,95.10
2024-03-03T13:45:58.294Z,94.40
2024-03-03T13:48:26.018Z,93.70
2024-03-03T13:50:53.047Z,93.20
2024-03-03T13:53:22.265Z,93.20
2024-03-03T13:55:49.683Z,94.50
2024-03-03T13:58:17.035Z,93.50
2024-03-03T14:00:44.415Z,93.90
2024-03-03T14:03:11.575Z,94.40
2024-03-03T14:05:38.852Z,94.20
2024-03-03T14:08:06.766Z,92.90
2024-03-03T14:10:34.162Z,93.90
2024-03-03T14:13:05.665Z,92.20
2024-03-03T14:15:34.201Z,92.50
2024-03-03T14:18:01.658Z,92.30
2024-03-03T14:20:29.758Z,93.40
2024-03-03T14:22:57.157Z,92.50
2024-03-03T14:25:26.145Z,93.60
2024-03-03T14:28:01.436Z,93.20
2024-03-03T14:30:35.686Z,92.60
2024-03-03T14:33:05.292Z,91.80
2024-03-03T14:35:32.666Z,91.80
2024-03-03T14:37:59.912Z,92.80
2024-03-03T14:40:26.866Z,91.40
2024-03-03T14:42:54.640Z,91.80
2024-03-03T14:45:22.297Z,89.30
2024-03-03T14:47:49.379Z,90.70
2024-03-03T14:50:17.650Z,90.80
2024-03-03T14:52:44.613Z,91.90
2024-03-03T14:55:11.680Z,90.60
2024-03-03T14:57:38.818Z,90.90
2024-03-03T15:00:06.906Z,90.20
2024-03-03T15:02:34.001Z,88.80
2024-03-03T15:05:00.932Z,89.20
2024-03-03T15:07:27.985Z,88.40
2024-03-03T15:09:55.430Z,90.20
2024-03-03T15:12:23.023Z,89.30
2024-03-03T15:14:49.991Z,87.00
2024-03-03T15:17:21.394Z,90.10
2024-03-03T15:19:54.075Z,90.70
2024-03-03T15:22:21.465Z,90.40
2024-03-03T15:24:48.555Z,90.10
2024-03-03T15:27:16.013Z,85.40
2024-03-03T15:29:44.065Z,87.40
2024-03-03T15:32:12.116Z,89.70
2024-03-03T15:34:39.462Z,88.70
2024-03-03T15:37:06.957Z,90.10
2024-03-03T15:39:37.340Z,90.10
2024-03-03T15:42:08.155Z,90.20
2024-03-03T15:44:35.936Z,90.80
2024-03-03T15:47:04.286Z,90.90
2024-03-03T15:49:31.598Z,91.10
2024-03-03T15:51:58.690Z,91.30
2024-03-03T15:54:25.734Z,92.20
2024-03-03T15:56:52.891Z,92.60
2024-03-03T15:59:20.476Z,93.00
2024-03-03T16:01:47.633Z,93.50
2024-03-03T16:04:14.658Z,93.50
2024-03-03T16:06:42.391Z,93.90
2024-03-03T16:09:11.522Z,94.50
2024-03-03T16:11:38.553Z,94.70
2024-03-03T16:14:05.534Z,95.00
2024-03-03T16:16:33.434Z,95.40
2024-03-03T16:19:00.576Z,95.10
2024-03-03T16:21:28.555Z,95.50
2024-03-03T16:23:58.113Z,96.00
2024-03-03T16:26:25.786Z,96.30
2024-03-03T16:28:52.777Z,96.70
2024-03-03T16:31:19.829Z,97.10
2024-03-03T16:33:50.234Z,97.30
2024-03-03T16:36:18.422Z,97.20
2024-03-03T16:38:45.511Z,97.30
2024-03-03T16:41:12.445Z,97.60
2024-03-03T16:43:39.442Z,97.70
2024-03-03T16:46:07.116Z,97.80
2024-03-03T16:48:34.166Z,97.90
2024-03-03T16:51:04.025Z,97.90
2024-03-03T16:53:32.597Z,98.00
2024-03-03T16:56:01.287Z,98.00
2024-03-03T16:58:28.994Z,98.20
2024-03-03T17:00:56.278Z,98.30
2024-03-03T17:03:23.537Z,98.40
2024-03-03T17:05:50.501Z,98.50
2024-03-03T17:08:17.600Z,98.60
2024-03-03T17:10:44.911Z,98.80
2024-03-03T17:13:11.964Z,98.90
2024-03-03T17:15:39.038Z,99.10
2024-03-03T17:18:06.392Z,99.50
2024-03-03T17:20:33.370Z,99.70
2024-03-03T17:23:00.305Z,99.90
2024-03-03T17:25:27.462Z,99.90
2024-03-03T17:27:54.490Z,99.90
2024-03-03T17:30:23.150Z,99.90
2024-03-03T17:32:52.226Z,99.90
2024-03-03T17:35:19.184Z,99.90
2024-03-03T17:37:46.111Z,99.90
2024-03-03T17:40:19.498Z,99.90
2024-03-03T17:42:46.548Z,99.90
2024-03-03T17:45:14.584Z,99.90
2024-03-03T17:47:41.598Z,99.90
2024-03-03T17:50:09.810Z,99.90
2024-03-03T17:52:37.050Z,99.90
2024-03-03T17:55:05.266Z,99.90
2024-03-03T17:57:33.672Z,99.90
2024-03-03T18:00:02.152Z,99.90
2024-03-03T18:02:29.521Z,99.90
2024-03-03T18:04:56.557Z,99.90
2024-03-03T18:07:24.366Z,99.90
2024-03-03T18:09:51.513Z,99.90
2024-03-03T18:12:18.615Z,99.90
2024-03-03T18:14:45.716Z,99.90
2024-03-03T18:17:12.738Z,99.90
2024-03-03T18:19:39.767Z,99.90
2024-03-03T18:22:07.057Z,99.90
2024-03-03T18:24:34.149Z,99.90
2024-03-03T18:27:01.597Z,99.90
2024-03-03T18:29:31.682Z,99.90
2024-03-03T18:31:59.177Z,99.90
2024-03-03T18:34:26.175Z,99.90
2024-03-03T18:36:54.841Z,99.90
2024-03-03T18:39:25.081Z,99.90
2024-03-03T18:41:53.106Z,99.90
2024-03-03T18:44:20.431Z,99.90
2024-03-03T18:46:47.595Z,99.90
2024-03-03T18:49:15.144Z,99.90
2024-03-03T18:51:46.214Z,99.90
2024-03-03T18:54:13.309Z,99.90
2024-03-03T18:56:40.444Z,99.90
2024-03-03T18:59:07.409Z,99.90
2024-03-03T19:01:34.508Z,99.90
2024-03-03T19:04:01.594Z,99.90
2024-03-03T19:06:28.548Z,99.90
2024-03-03T19:08:55.452Z,99.90
2024-03-03T19:11:22.601Z,99.90
2024-03-03T19:13:50.673Z,99.90
2024-03-03T19:16:18.251Z,99.90
2024-03-03T19:18:49.076Z,99.90
2024-03-03T19:21:16.345Z,99.90
2024-03-03T19:23:43.553Z,99.90
2024-03-03T19:26:10.712Z,99.90
2024-03-03T19:28:38.680Z,99.90
2024-03-03T19:31:06.006Z,99.90
2024-03-03T19:33:33.397Z,99.90
2024-03-03T19:36:01.495Z,99.90
2024-03-03T19:38:30.027Z,99.90
2024-03-03T19:40:57.876Z,99.90
2024-03-03T19:43:25.501Z,99.90
2024-03-03T19:45:52.628Z,99.90
2024-03-03T19:48:19.884Z,99.90
2024-03-03T19:50:47.216Z,99.90
2024-03-03T19:53:14.365Z,99.90
2024-03-03T19:55:42.925Z,99.90
2024-03-03T19:58:10.049Z,99.90
2024-03-03T20:00:38.121Z,99.90
2024-03-03T20:03:08.734Z,99.90
2024-03-03T20:05:35.740Z,99.90
2024-03-03T20:08:06.209Z,99.90
2024-03-03T20:10:33.833Z,99.90
2024-03-03T20:13:05.146Z,99.90
2024-03-03T20:15:32.456Z,99.90
2024-03-03T20:17:59.510Z,99.90
2024-03-03T20:20:26.545Z,99.90
2024-03-03T20:22:53.486Z,99.90
2024-03-03T20:25:20.939Z,99.90
2024-03-03T20:27:48.142Z,99.90
2024-03-03T20:30:15.662Z,99.90
2024-03-03T20:32:42.797Z,99.90
2024-03-03T20:35:11.041Z,99.90
2024-03-03T20:37:38.137Z,99.90
2024-03-03T20:40:12.627Z,99.90
2024-03-03T20:42:41.349Z,99.90
2024-03-03T20:45:12.390Z,99.90
2024-03-03T20:47:41.028Z,99.90
2024-03-03T20:50:10.278Z,99.90
2024-03-03T20:52:39.235Z,99.90
2024-03-03T20:55:09.926Z,99.90
2024-03-03T20:57:38.019Z,99.90
2024-03-03T21:00:09.830Z,99.90
2024-03-03T21:02:38.883Z,99.90
2024-03-03T21:05:07.806Z,99.90
2024-03-03T21:07:35.353Z,99.90
2024-03-03T21:10:02.922Z,99.90
2024-03-03T21:12:30.217Z,99.90
2024-03-03T21:14:57.382Z,99.90
2024-03-03T21:17:24.339Z,99.90
2024-03-03T21:19:51.277Z,99.90
2024-03-03T21:22:18.713Z,99.90
2024-03-03T21:24:46.153Z,99.90
2024-03-03T21:27:13.946Z,99.90
2024-03-03T21:29:41.063Z,99.90
2024-03-03T21:32:08.210Z,99.90
2024-03-03T21:34:35.295Z,99.90
2024-03-03T21:37:03.253Z,99.90
2024-03-03T21:39:32.492Z,99.90
2024-03-03T21:41:59.665Z,99.90
2024-03-03T21:44:26.754Z,99.90
2024-03-03T21:46:54.633Z,99.90
2024-03-03T21:49:21.805Z,99.90
2024-03-03T21:51:48.792Z,99.90
2024-03-03T21:54:16.135Z,99.90
2024-03-03T21:56:43.167Z,99.90
2024-03-03T21:59:10.126Z,99.90
2024-03-03T22:01:42.417Z,99.90
2024-03-03T22:04:15.268Z,99.90
2024-03-03T22:06:43.364Z,99.90
2024-03-03T22:09:10.779Z,99.90
2024-03-03T22:11:41.879Z,99.90
2024-03-03T22:14:08.840Z,99.90
2024-03-03T22:16:35.771Z,99.90
2024-03-03T22:19:02.677Z,99.90
2024-03-03T22:21:31.205Z,99.90
2024-03-03T22:24:01.073Z,99.90
2024-03-03T22:26:29.719Z,99.90
2024-03-03T22:28:56.658Z,99.90
2024-03-03T22:31:23.629Z,99.90
2024-03-03T22:33:50.533Z,99.90
2024-03-03T22:36:17.485Z,99.90
2024-03-03T22:38:45.122Z,99.90
2024-03-03T22:41:13.912Z,99.90
2024-03-03T22:43:41.047Z,99.90
2024-03-03T22:46:08.071Z,99.90
2024-03-03T22:48:34.972Z,99.90
2024-03-03T22:51:01.952Z,99.90
2024-03-03T22:53:29.938Z,99.90
2024-03-03T22:55:56.868Z,99.90
2024-03-03T22:58:23.916Z,99.90
2024-03-03T23:00:50.826Z,99.90
2024-03-03T23:03:17.830Z,99.90
2024-03-03T23:05:46.728Z,99.90
2024-03-03T23:08:13.876Z,99.90
2024-03-03T23:10:40.948Z,99.90
2024-03-03T23:13:08.958Z,99.90
2024-03-03T23:15:35.942Z,99.90
2024-03-03T23:18:02.917Z,99.90
2024-03-03T23:20:29.852Z,99.90
2024-03-03T23:22:56.853Z,99.90
2024-03-03T23:25:23.888Z,99.90
2024-03-03T23:27:52.239Z,99.90
2024-03-03T23:30:19.983Z,99.90
2024-03-03T23:32:47.408Z,99.90
2024-03-03T23:35:14.581Z,99.90
2024-03-03T23:37:42.004Z,99.90
2024-03-03T23:40:11.431Z,99.90
2024-03-03T23:42:38.533Z,99.90
2024-03-03T23:45:06.165Z,99.90
2024-03-03T23:47:33.130Z,99.90
2024-03-03T23:50:00.188Z,99.90
2024-03-03T23:52:27.254Z,99.90
2024-03-03T23:54:54.287Z,99.90
2024-03-03T23:57:21.237Z,99.90
2024-03-03T23:59:48.104Z,99.90
